createdAt,value
2019-02-24T00:00:24.826Z,34.10
2019-02-24T00:02:53.312Z,35.00
2019-02-24T00:05:21.691Z,34.90
2019-02-24T00:07:50.065Z,35.30
2019-02-24T00:10:18.455Z,37.40
2019-02-24T00:12:46.831Z,38.30
2019-02-24T00:15:15.220Z,46.20
2019-02-24T00:17:43.611Z,38.50
2019-02-24T00:20:11.988Z,35.20
2019-02-24T00:22:40.371Z,38.40
2019-02-24T00:25:08.760Z,43.80
2019-02-24T00:27:37.145Z,40.80
2019-02-24T00:30:07.271Z,41.40
2019-02-24T00:32:35.652Z,42.50
2019-02-24T00:35:05.277Z,46.90
2019-02-24T00:37:33.653Z,50.30
2019-02-24T00:40:02.040Z,50.00
2019-02-24T00:42:30.426Z,52.40
2019-02-24T00:44:58.807Z,47.70
2019-02-24T00:47:27.184Z,55.40
2019-02-24T00:49:55.580Z,58.30
2019-02-24T00:52:23.960Z,56.60
2019-02-24T00:54:52.364Z,56.00
2019-02-24T00:57:20.745Z,56.30
2019-02-24T00:59:49.128Z,56.40
2019-02-24T01:02:17.504Z,49.30
2019-02-24T01:04:45.892Z,55.60
2019-02-24T01:07:14.350Z,57.70
2019-02-24T01:09:42.728Z,58.40
2019-02-24T01:12:11.104Z,49.10
2019-02-24T01:14:39.497Z,46.80
2019-02-24T01:17:07.944Z,49.60
2019-02-24T01:19:36.596Z,45.30
2019-02-24T01:22:04.967Z,43.10
2019-02-24T01:24:33.362Z,45.00
2019-02-24T01:27:01.735Z,41.30
2019-02-24T01:29:30.228Z,41.20
2019-02-24T01:31:58.621Z,42.90
2019-02-24T01:34:26.992Z,40.30
2019-02-24T01:36:55.380Z,42.10
2019-02-24T01:39:23.761Z,43.80
2019-02-24T01:41:52.149Z,41.70
2019-02-24T01:44:20.537Z,42.90
2019-02-24T01:46:48.915Z,44.90
2019-02-24T01:49:17.292Z,48.50
2019-02-24T01:51:45.682Z,51.20
2019-02-24T01:54:14.051Z,53.80
2019-02-24T01:56:42.437Z,55.50
2019-02-24T01:59:10.811Z,60.00
2019-02-24T02:01:39.195Z,57.80
2019-02-24T02:04:07.579Z,61.60
2019-02-24T02:06:35.963Z,59.80
2019-02-24T02:09:05.679Z,62.10
2019-02-24T02:11:34.072Z,61.70
2019-02-24T02:14:02.446Z,62.90
2019-02-24T02:16:30.834Z,61.10
2019-02-24T02:18:59.220Z,64.00
2019-02-24T02:21:27.948Z,69.40
2019-02-24T02:23:56.317Z,69.60
2019-02-24T02:26:24.703Z,55.10
2019-02-24T02:28:53.097Z,53.80
2019-02-24T02:31:21.489Z,53.80
2019-02-24T02:33:49.863Z,53.10
2019-02-24T02:36:18.257Z,56.70
2019-02-24T02:38:46.627Z,62.50
2019-02-24T02:41:15.017Z,60.50
2019-02-24T02:43:43.393Z,68.60
2019-02-24T02:46:11.775Z,64.50
2019-02-24T02:48:40.451Z,67.70
2019-02-24T02:51:09.181Z,69.50
2019-02-24T02:53:37.574Z,69.00
2019-02-24T02:56:06.035Z,55.60
2019-02-24T02:58:34.425Z,63.90
2019-02-24T03:01:02.807Z,63.20
2019-02-24T03:03:31.198Z,65.40
2019-02-24T03:06:07.194Z,66.70
2019-02-24T03:08:45.372Z,64.90
2019-02-24T03:11:14.300Z,66.50
2019-02-24T03:13:42.716Z,65.40
2019-02-24T03:16:11.165Z,64.70
2019-02-24T03:18:39.793Z,63.80
2019-02-24T03:21:08.176Z,66.20
2019-02-24T03:23:36.571Z,63.10
2019-02-24T03:26:04.960Z,62.10
2019-02-24T03:28:33.353Z,64.60
2019-02-24T03:31:01.729Z,65.90
2019-02-24T03:33:30.133Z,62.20
2019-02-24T03:35:58.517Z,61.30
2019-02-24T03:38:26.905Z,58.90
2019-02-24T03:40:55.292Z,59.20
2019-02-24T03:43:23.697Z,68.00
2019-02-24T03:45:52.075Z,69.20
2019-02-24T03:48:20.467Z,69.10
2019-02-24T03:50:48.855Z,70.90
2019-02-24T03:53:17.326Z,65.00
2019-02-24T03:55:45.713Z,63.70
2019-02-24T03:58:14.187Z,61.50
2019-02-24T04:00:42.564Z,61.70
2019-02-24T04:03:10.961Z,60.20
2019-02-24T04:05:39.339Z,60.20
2019-02-24T04:08:07.749Z,60.60
2019-02-24T04:10:36.137Z,60.30
2019-02-24T04:13:04.603Z,60.10
2019-02-24T04:15:33.005Z,60.80
2019-02-24T04:18:01.687Z,60.40
2019-02-24T04:20:30.071Z,60.30
2019-02-24T04:22:58.476Z,60.40
2019-02-24T04:25:26.864Z,59.60
2019-02-24T04:27:55.244Z,66.10
2019-02-24T04:30:23.639Z,66.80
2019-02-24T04:32:52.019Z,67.30
2019-02-24T04:35:20.755Z,70.00
2019-02-24T04:37:49.144Z,71.00
2019-02-24T04:40:17.540Z,70.50
2019-02-24T04:42:46.000Z,67.10
2019-02-24T04:45:14.393Z,65.00
2019-02-24T04:47:42.790Z,63.40
2019-02-24T04:50:11.260Z,65.30
2019-02-24T04:52:39.929Z,64.70
2019-02-24T04:55:08.326Z,63.70
2019-02-24T04:57:37.002Z,63.10
2019-02-24T05:00:08.253Z,63.50
2019-02-24T05:02:36.703Z,69.80
2019-02-24T05:05:05.941Z,66.00
2019-02-24T05:07:34.325Z,66.00
2019-02-24T05:10:02.721Z,68.30
2019-02-24T05:12:31.105Z,73.00
2019-02-24T05:14:59.492Z,75.40
2019-02-24T05:17:27.871Z,70.70
2019-02-24T05:19:56.270Z,73.80
2019-02-24T05:22:24.648Z,77.50
2019-02-24T05:24:53.050Z,73.50
2019-02-24T05:27:21.438Z,77.30
2019-02-24T05:29:49.832Z,75.10
2019-02-24T05:32:18.200Z,76.20
2019-02-24T05:34:46.581Z,72.80
2019-02-24T05:37:14.978Z,73.10
2019-02-24T05:39:43.365Z,71.60
2019-02-24T05:42:11.763Z,72.40
2019-02-24T05:44:40.144Z,70.30
2019-02-24T05:47:08.541Z,70.00
2019-02-24T05:49:36.928Z,73.20
2019-02-24T05:52:05.345Z,72.30
2019-02-24T05:54:33.734Z,69.10
2019-02-24T05:57:02.120Z,73.90
2019-02-24T05:59:30.505Z,78.80
2019-02-24T06:01:58.899Z,72.50
2019-02-24T06:04:27.278Z,72.40
2019-02-24T06:06:55.665Z,68.90
2019-02-24T06:09:24.041Z,76.20
2019-02-24T06:11:52.444Z,79.80
2019-02-24T06:14:20.830Z,73.80
2019-02-24T06:16:49.211Z,70.80
2019-02-24T06:19:17.610Z,73.20
2019-02-24T06:21:46.335Z,76.20
2019-02-24T06:24:14.722Z,76.80
2019-02-24T06:26:43.112Z,76.60
2019-02-24T06:29:11.508Z,76.00
2019-02-24T06:31:39.896Z,74.50
2019-02-24T06:34:08.282Z,72.60
2019-02-24T06:36:36.688Z,75.50
2019-02-24T06:39:06.107Z,75.10
2019-02-24T06:41:34.503Z,72.70
2019-02-24T06:44:02.885Z,71.20
2019-02-24T06:46:31.302Z,70.70
2019-02-24T06:48:59.685Z,69.50
2019-02-24T06:51:28.064Z,68.90
2019-02-24T06:53:56.459Z,67.50
2019-02-24T06:56:24.854Z,69.90
2019-02-24T06:58:53.251Z,69.80
2019-02-24T07:01:21.627Z,68.30
2019-02-24T07:03:50.021Z,71.20
2019-02-24T07:06:18.401Z,67.90
2019-02-24T07:08:46.789Z,68.30
2019-02-24T07:11:15.179Z,69.50
2019-02-24T07:13:43.578Z,69.20
2019-02-24T07:16:11.962Z,68.00
2019-02-24T07:18:40.349Z,69.20
2019-02-24T07:21:08.738Z,69.30
2019-02-24T07:23:37.126Z,68.00
2019-02-24T07:26:05.503Z,64.90
2019-02-24T07:28:33.896Z,61.20
2019-02-24T07:31:02.272Z,60.20
2019-02-24T07:33:30.672Z,56.70
2019-02-24T07:35:59.047Z,56.60
2019-02-24T07:38:27.444Z,54.90
2019-02-24T07:40:56.087Z,53.30
2019-02-24T07:43:24.482Z,49.90
2019-02-24T07:45:52.865Z,48.10
2019-02-24T07:48:21.270Z,47.40
2019-02-24T07:50:49.645Z,50.00
2019-02-24T07:53:18.040Z,49.70
2019-02-24T07:55:46.425Z,46.90
2019-02-24T07:58:14.813Z,49.10
2019-02-24T08:00:43.195Z,42.40
2019-02-24T08:03:11.597Z,38.60
2019-02-24T08:05:40.056Z,35.10
2019-02-24T08:08:16.191Z,33.00
2019-02-24T08:10:38.561Z,30.80
2019-02-24T08:13:06.932Z,30.40
2019-02-24T08:15:35.324Z,29.20
2019-02-24T08:18:03.711Z,29.50
2019-02-24T08:20:33.460Z,28.20
2019-02-24T08:23:01.924Z,29.80
2019-02-24T08:25:30.304Z,30.10
2019-02-24T08:27:58.681Z,29.20
2019-02-24T08:30:27.074Z,29.10
2019-02-24T08:32:55.448Z,29.50
2019-02-24T08:35:23.848Z,28.20
2019-02-24T08:37:52.237Z,28.10
2019-02-24T08:40:20.628Z,27.40
2019-02-24T08:42:49.025Z,31.00
2019-02-24T08:45:17.425Z,27.60
2019-02-24T08:47:45.800Z,27.30
2019-02-24T08:50:14.206Z,28.00
2019-02-24T08:52:42.587Z,26.20
2019-02-24T08:55:10.963Z,36.80
2019-02-24T08:57:39.341Z,26.10
2019-02-24T09:00:10.549Z,25.90
2019-02-24T09:02:39.003Z,27.10
2019-02-24T09:05:07.535Z,26.10
2019-02-24T09:07:35.992Z,25.10
2019-02-24T09:10:06.637Z,24.10
2019-02-24T09:12:34.243Z,24.10
2019-02-24T09:15:02.708Z,26.60
2019-02-24T09:17:31.090Z,25.30
2019-02-24T09:19:59.489Z,24.60
2019-02-24T09:22:27.872Z,24.40
2019-02-24T09:24:56.272Z,23.60
2019-02-24T09:27:24.660Z,24.10
2019-02-24T09:29:53.052Z,23.90
2019-02-24T09:32:24.138Z,24.30
2019-02-24T09:34:52.523Z,26.10
2019-02-24T09:37:20.921Z,24.70
2019-02-24T09:39:49.311Z,23.50
2019-02-24T09:42:17.716Z,24.20
2019-02-24T09:44:46.097Z,22.80
2019-02-24T09:47:14.493Z,22.50
2019-02-24T09:49:42.879Z,21.80
2019-02-24T09:52:11.306Z,23.80
2019-02-24T09:54:39.669Z,23.00
2019-02-24T09:57:08.064Z,24.10
2019-02-24T09:59:36.444Z,21.80
2019-02-24T10:02:04.839Z,22.40
2019-02-24T10:04:33.227Z,22.10
2019-02-24T10:07:01.626Z,21.80
2019-02-24T10:09:30.027Z,21.80
2019-02-24T10:11:58.425Z,22.80
2019-02-24T10:14:26.803Z,20.90
2019-02-24T10:16:55.192Z,20.70
2019-02-24T10:19:23.573Z,19.30
2019-02-24T10:21:51.968Z,22.70
2019-02-24T10:24:20.600Z,21.80
2019-02-24T10:26:49.004Z,26.20
2019-02-24T10:29:17.457Z,21.70
2019-02-24T10:31:45.853Z,33.00
2019-02-24T10:34:14.239Z,20.20
2019-02-24T10:36:42.631Z,19.10
2019-02-24T10:39:12.443Z,22.00
2019-02-24T10:41:40.832Z,20.60
2019-02-24T10:44:09.212Z,20.10
2019-02-24T10:46:37.600Z,22.30
2019-02-24T10:49:06.009Z,19.10
2019-02-24T10:51:34.399Z,20.10
2019-02-24T10:54:02.812Z,20.70
2019-02-24T10:56:31.201Z,20.00
2019-02-24T10:58:59.600Z,20.70
2019-02-24T11:01:29.918Z,19.80
2019-02-24T11:03:58.107Z,18.80
2019-02-24T11:06:26.488Z,20.30
2019-02-24T11:08:54.880Z,19.60
2019-02-24T11:11:23.275Z,25.30
2019-02-24T11:13:51.687Z,21.40
2019-02-24T11:16:20.070Z,22.10
2019-02-24T11:18:48.459Z,22.00
2019-02-24T11:21:16.840Z,20.30
2019-02-24T11:23:45.232Z,23.90
2019-02-24T11:26:13.619Z,19.20
2019-02-24T11:28:42.011Z,33.50
2019-02-24T11:31:10.462Z,18.30
2019-02-24T11:33:38.851Z,19.80
2019-02-24T11:36:07.227Z,30.00
2019-02-24T11:38:35.853Z,19.40
2019-02-24T11:41:04.243Z,22.20
2019-02-24T11:43:32.627Z,36.00
2019-02-24T11:46:01.020Z,23.20
2019-02-24T11:48:29.412Z,21.80
2019-02-24T11:50:57.792Z,26.40
2019-02-24T11:53:26.176Z,23.20
2019-02-24T11:55:54.556Z,30.00
2019-02-24T11:58:22.952Z,39.00
2019-02-24T12:00:51.336Z,37.50
2019-02-24T12:03:19.728Z,29.20
2019-02-24T12:05:48.134Z,34.20
2019-02-24T12:08:16.504Z,29.40
2019-02-24T12:10:44.892Z,36.00
2019-02-24T12:13:13.278Z,22.10
2019-02-24T12:15:41.669Z,29.80
2019-02-24T12:18:10.052Z,29.30
2019-02-24T12:20:38.448Z,30.50
2019-02-24T12:23:06.832Z,26.60
2019-02-24T12:25:35.222Z,35.40
2019-02-24T12:28:03.611Z,21.50
2019-02-24T12:30:32.091Z,27.30
2019-02-24T12:33:00.477Z,34.50
2019-02-24T12:35:31.599Z,23.70
2019-02-24T12:37:59.984Z,30.40
2019-02-24T12:40:28.384Z,33.20
2019-02-24T12:42:56.832Z,27.10
2019-02-24T12:45:25.218Z,25.50
2019-02-24T12:47:53.602Z,31.90
2019-02-24T12:50:21.992Z,26.90
2019-02-24T12:52:50.380Z,23.50
2019-02-24T12:55:18.849Z,23.40
2019-02-24T12:57:47.242Z,23.20
2019-02-24T13:00:21.308Z,24.60
2019-02-24T13:02:49.763Z,32.40
2019-02-24T13:05:18.221Z,22.20
2019-02-24T13:07:46.600Z,22.20
2019-02-24T13:10:16.431Z,28.00
2019-02-24T13:12:45.116Z,23.10
2019-02-24T13:15:13.589Z,27.60
2019-02-24T13:17:42.317Z,30.10
2019-02-24T13:20:11.458Z,28.50
2019-02-24T13:22:39.975Z,28.80
2019-02-24T13:25:10.054Z,21.90
2019-02-24T13:27:38.489Z,27.00
2019-02-24T13:30:09.828Z,33.40
2019-02-24T13:32:38.199Z,29.50
2019-02-24T13:35:08.228Z,27.20
2019-02-24T13:37:36.621Z,32.00
2019-02-24T13:40:13.679Z,25.20
2019-02-24T13:42:42.133Z,33.70
2019-02-24T13:45:15.860Z,25.00
2019-02-24T13:47:44.239Z,23.20
2019-02-24T13:50:12.695Z,26.70
2019-02-24T13:52:41.100Z,44.50
2019-02-24T13:55:11.613Z,27.10
2019-02-24T13:57:39.525Z,31.00
2019-02-24T14:00:11.055Z,23.30
2019-02-24T14:02:39.444Z,22.30
2019-02-24T14:05:07.894Z,22.30
2019-02-24T14:07:36.284Z,26.70
2019-02-24T14:10:07.008Z,40.90
2019-02-24T14:12:35.460Z,25.90
2019-02-24T14:15:05.980Z,37.50
2019-02-24T14:17:33.602Z,42.10
2019-02-24T14:20:01.982Z,36.90
2019-02-24T14:22:30.379Z,47.10
2019-02-24T14:24:58.760Z,33.90
2019-02-24T14:27:27.161Z,45.10
2019-02-24T14:29:55.548Z,30.20
2019-02-24T14:32:32.712Z,43.50
2019-02-24T14:34:54.047Z,36.20
2019-02-24T14:37:22.436Z,24.60
2019-02-24T14:39:51.040Z,46.50
2019-02-24T14:42:19.433Z,23.80
2019-02-24T14:44:47.816Z,27.60
2019-02-24T14:47:16.206Z,30.20
2019-02-24T14:49:44.602Z,28.00
2019-02-24T14:52:12.990Z,44.10
2019-02-24T14:54:41.376Z,31.80
2019-02-24T14:57:09.764Z,43.80
2019-02-24T14:59:38.156Z,35.00
2019-02-24T15:02:06.537Z,30.80
2019-02-24T15:04:34.916Z,29.40
2019-02-24T15:07:03.315Z,26.90
2019-02-24T15:09:31.687Z,42.00
2019-02-24T15:12:00.428Z,39.60
2019-02-24T15:14:28.820Z,44.80
2019-02-24T15:16:57.208Z,29.50
2019-02-24T15:19:25.593Z,25.20
2019-02-24T15:21:54.003Z,50.50
2019-02-24T15:24:22.435Z,33.30
2019-02-24T15:26:50.858Z,25.40
2019-02-24T15:29:19.251Z,27.50
2019-02-24T15:31:47.656Z,41.00
2019-02-24T15:34:16.057Z,46.90
2019-02-24T15:36:44.441Z,39.30
2019-02-24T15:39:12.832Z,27.00
2019-02-24T15:41:41.230Z,24.80
2019-02-24T15:44:10.171Z,24.70
2019-02-24T15:46:38.710Z,24.20
2019-02-24T15:49:07.096Z,32.30
2019-02-24T15:51:35.492Z,26.00
2019-02-24T15:54:03.960Z,26.40
2019-02-24T15:56:32.351Z,29.70
2019-02-24T15:59:00.744Z,30.40
2019-02-24T16:01:29.123Z,25.80
2019-02-24T16:03:57.525Z,26.50
2019-02-24T16:06:25.916Z,24.40
2019-02-24T16:08:54.323Z,27.40
2019-02-24T16:11:22.713Z,27.00
2019-02-24T16:13:51.106Z,28.40
2019-02-24T16:16:19.492Z,26.00
2019-02-24T16:18:47.884Z,26.80
2019-02-24T16:21:16.516Z,25.90
2019-02-24T16:23:44.912Z,27.30
2019-02-24T16:26:13.363Z,30.70
2019-02-24T16:28:41.759Z,40.60
2019-02-24T16:31:10.148Z,33.40
2019-02-24T16:33:38.548Z,29.50
2019-02-24T16:36:07.004Z,28.00
2019-02-24T16:38:35.411Z,27.50
2019-02-24T16:41:03.802Z,28.40
2019-02-24T16:43:32.259Z,30.70
2019-02-24T16:46:00.650Z,28.60
2019-02-24T16:48:29.048Z,28.20
2019-02-24T16:50:57.420Z,28.90
2019-02-24T16:53:25.800Z,28.20
2019-02-24T16:55:54.217Z,26.70
2019-02-24T16:58:22.660Z,29.70
2019-02-24T17:00:51.062Z,33.80
2019-02-24T17:03:20.249Z,28.40
2019-02-24T17:05:48.789Z,27.60
2019-02-24T17:08:17.173Z,28.70
2019-02-24T17:10:45.564Z,27.80
2019-02-24T17:13:13.951Z,32.00
2019-02-24T17:15:43.161Z,28.80
2019-02-24T17:18:11.551Z,28.70
2019-02-24T17:20:39.936Z,28.50
2019-02-24T17:23:08.316Z,28.70
2019-02-24T17:25:36.717Z,28.40
2019-02-24T17:28:05.121Z,28.20
2019-02-24T17:30:33.512Z,29.20
2019-02-24T17:33:01.890Z,29.10
2019-02-24T17:35:30.286Z,28.90
2019-02-24T17:37:58.667Z,29.30
2019-02-24T17:40:27.132Z,29.80
2019-02-24T17:42:55.521Z,30.10
2019-02-24T17:45:23.916Z,29.10
2019-02-24T17:47:52.289Z,29.60
2019-02-24T17:50:20.749Z,29.90
2019-02-24T17:52:49.135Z,30.20
2019-02-24T17:55:18.569Z,30.10
2019-02-24T17:57:46.956Z,30.20
2019-02-24T18:00:27.397Z,31.50
2019-02-24T18:02:55.854Z,29.80
2019-02-24T18:05:24.560Z,30.90
2019-02-24T18:07:52.955Z,32.90
2019-02-24T18:10:21.428Z,32.20
2019-02-24T18:12:49.825Z,31.50
2019-02-24T18:15:18.281Z,31.60
2019-02-24T18:17:46.678Z,31.70
2019-02-24T18:20:22.220Z,34.00
2019-02-24T18:22:50.624Z,33.00
2019-02-24T18:25:19.011Z,33.00
2019-02-24T18:27:47.408Z,34.40
2019-02-24T18:30:23.547Z,34.10
2019-02-24T18:32:51.957Z,37.20
2019-02-24T18:35:20.397Z,35.30
2019-02-24T18:37:48.797Z,34.30
2019-02-24T18:40:17.191Z,35.40
2019-02-24T18:42:45.646Z,34.30
2019-02-24T18:45:14.873Z,36.90
2019-02-24T18:47:43.500Z,32.80
2019-02-24T18:50:13.538Z,31.80
2019-02-24T18:52:41.929Z,33.70
2019-02-24T18:55:11.154Z,30.80
2019-02-24T18:57:39.790Z,33.40
2019-02-24T19:00:19.219Z,31.50
2019-02-24T19:02:47.606Z,34.60
2019-02-24T19:05:15.994Z,34.60
2019-02-24T19:07:44.386Z,35.00
2019-02-24T19:10:15.293Z,36.60
2019-02-24T19:12:43.692Z,43.40
2019-02-24T19:15:14.987Z,56.60
2019-02-24T19:17:43.386Z,52.80
2019-02-24T19:20:22.502Z,46.50
2019-02-24T19:22:50.889Z,53.90
2019-02-24T19:25:19.345Z,48.90
2019-02-24T19:28:07.102Z,42.50
2019-02-24T19:30:35.459Z,48.30
2019-02-24T19:33:03.848Z,37.90
2019-02-24T19:35:32.504Z,50.20
2019-02-24T19:38:00.901Z,52.20
2019-02-24T19:40:29.286Z,46.10
2019-02-24T19:42:57.801Z,46.00
2019-02-24T19:45:26.576Z,45.80
2019-02-24T19:47:55.043Z,43.30
2019-02-24T19:50:24.192Z,55.30
2019-02-24T19:52:52.640Z,50.00
2019-02-24T19:55:21.041Z,46.60
2019-02-24T19:57:49.424Z,40.60
2019-02-24T20:00:20.028Z,49.00
2019-02-24T20:02:47.632Z,41.40
2019-02-24T20:05:16.110Z,40.40
2019-02-24T20:07:44.492Z,43.90
2019-02-24T20:10:16.330Z,41.20
2019-02-24T20:12:44.705Z,40.40
2019-02-24T20:15:14.840Z,41.80
2019-02-24T20:17:43.307Z,41.40
2019-02-24T20:20:13.837Z,41.30
2019-02-24T20:22:42.291Z,41.90
2019-02-24T20:25:12.827Z,43.00
2019-02-24T20:27:41.212Z,41.80
2019-02-24T20:30:15.252Z,41.30
2019-02-24T20:32:43.696Z,42.80
2019-02-24T20:35:12.091Z,41.90
2019-02-24T20:37:40.466Z,42.00
2019-02-24T20:40:10.397Z,44.30
2019-02-24T20:42:38.779Z,41.80
2019-02-24T20:45:12.628Z,42.70
2019-02-24T20:47:41.008Z,42.60
2019-02-24T20:50:23.961Z,42.00
2019-02-24T20:52:52.339Z,42.00
2019-02-24T20:55:20.739Z,41.60
2019-02-24T20:57:49.183Z,42.50
2019-02-24T21:00:20.647Z,43.10
2019-02-24T21:02:49.029Z,43.40
2019-02-24T21:05:17.561Z,42.90
2019-02-24T21:07:45.949Z,49.10
2019-02-24T21:10:14.410Z,49.80
2019-02-24T21:12:42.792Z,54.30
2019-02-24T21:15:13.789Z,45.00
2019-02-24T21:17:42.181Z,44.50
2019-02-24T21:20:31.600Z,44.00
2019-02-24T21:22:59.984Z,43.40
2019-02-24T21:25:28.445Z,43.70
2019-02-24T21:27:56.916Z,43.40
2019-02-24T21:30:25.361Z,58.70
2019-02-24T21:32:53.763Z,49.00
2019-02-24T21:35:22.146Z,46.90
2019-02-24T21:37:50.541Z,46.00
2019-02-24T21:40:23.669Z,48.20
2019-02-24T21:42:52.266Z,45.40
2019-02-24T21:45:23.052Z,47.00
2019-02-24T21:47:51.449Z,55.70
2019-02-24T21:50:19.837Z,54.60
2019-02-24T21:52:48.294Z,46.00
2019-02-24T21:55:16.741Z,46.20
2019-02-24T21:57:45.134Z,46.00
2019-02-24T22:00:23.711Z,45.10
2019-02-24T22:02:52.103Z,45.60
2019-02-24T22:05:20.474Z,45.10
2019-02-24T22:07:48.864Z,45.20
2019-02-24T22:10:17.250Z,45.10
2019-02-24T22:12:45.639Z,44.60
2019-02-24T22:15:22.458Z,44.40
2019-02-24T22:17:50.852Z,49.40
2019-02-24T22:20:19.233Z,45.40
2019-02-24T22:22:47.621Z,49.70
2019-02-24T22:25:16.652Z,46.00
2019-02-24T22:27:45.044Z,45.40
2019-02-24T22:30:18.164Z,48.10
2019-02-24T22:32:46.562Z,57.90
2019-02-24T22:35:15.017Z,54.70
2019-02-24T22:37:43.569Z,60.90
2019-02-24T22:40:13.000Z,68.40
2019-02-24T22:42:41.436Z,66.30
2019-02-24T22:45:12.632Z,60.30
2019-02-24T22:47:41.021Z,60.90
2019-02-24T22:50:10.046Z,65.00
2019-02-24T22:52:38.440Z,55.40
2019-02-24T22:55:09.461Z,52.30
2019-02-24T22:57:37.843Z,52.20
2019-02-24T23:00:12.104Z,55.10
2019-02-24T23:02:40.499Z,53.30
2019-02-24T23:05:08.943Z,51.50
2019-02-24T23:07:37.340Z,50.90
2019-02-24T23:10:06.925Z,51.20
2019-02-24T23:12:35.383Z,65.20
2019-02-24T23:15:05.708Z,58.70
2019-02-24T23:17:34.103Z,52.70
2019-02-24T23:20:02.562Z,51.10
2019-02-24T23:22:30.935Z,54.60
2019-02-24T23:24:59.315Z,60.20
2019-02-24T23:27:27.700Z,60.30
2019-02-24T23:29:56.093Z,59.70
2019-02-24T23:32:24.472Z,60.30
2019-02-24T23:34:52.863Z,56.60
2019-02-24T23:37:21.312Z,60.90
2019-02-24T23:39:49.700Z,61.80
2019-02-24T23:42:18.080Z,70.10
2019-02-24T23:44:46.467Z,70.10
2019-02-24T23:47:14.848Z,72.20
2019-02-24T23:49:43.235Z,72.40
2019-02-24T23:52:11.615Z,71.90
2019-02-24T23:54:41.498Z,72.70
2019-02-24T23:57:10.062Z,71.10
2019-02-24T23:59:38.777Z,71.60
